PWSweather.com
Personal Weather Stations
Station Observations
IONTARIO88
Lincoln, ON L0R

Lincoln, ON L0R

Lat: 43.1763563, Lon: -79.4719525

Elevation: 297

Station Type: Davis Vantage Pro 2 Plus

http://www.beamsvillewx.ca

High Low Average
Temperature 36.5°F2.5°C 29.8°F-1.2°C 34.3°F1.3°C
Dew Point 33.4°F0.8°C 21.2°F-6.0°C 30.7°F-0.7°C
Winds 13.0 mph 20.9 kmh 4.0 mph 6.4 kmh 8.0 mph SW12.9 kmh SW
Wind Gusts 28.0 mph45.1 kmh 11.0 mph17.7 kmh 18.0 mph29.0 kmh
Humidity 93% 64% 87%
Pressure 30.00 in1015.9 mb 29.81 in1009.5 mb -
Precipitation 0.25 in6.4 mm - -
Hour Temp Dew Point Humidity Winds Wind Gusts Pressure Precip Precip Rate Daily Precip Total
12:00 AM 31.3°F-0.4°C 19.4°F-7.0°C 61% 12.0 mph SW19.3 kmh SW 29.0 mph46.7 kmh 30.00 in1015.9 mb 0.00 in0.0 mm 0.00 in0.0 mm 0.00 in0.0 mm
12:15 AM 31.5°F-0.3°C 19.5°F-6.9°C 61% 15.0 mph SW24.1 kmh SW 27.0 mph43.5 kmh 29.99 in1015.6 mb 0.00 in0.0 mm 0.00 in0.0 mm 0.00 in0.0 mm
12:30 AM 31.5°F-0.3°C 19.9°F-6.7°C 62% 12.0 mph SW19.3 kmh SW 28.0 mph45.1 kmh 29.99 in1015.6 mb 0.00 in0.0 mm 0.00 in0.0 mm 0.00 in0.0 mm
12:45 AM 31.6°F-0.2°C 20.8°F-6.2°C 64% 13.0 mph SW20.9 kmh SW 25.0 mph40.2 kmh 30.00 in1015.9 mb 0.00 in0.0 mm 0.00 in0.0 mm 0.00 in0.0 mm
01:00 AM 32.0°F0.0°C 21.2°F-6.0°C 64% 13.0 mph SW20.9 kmh SW 27.0 mph43.5 kmh 29.99 in1015.6 mb 0.00 in0.0 mm 0.00 in0.0 mm 0.00 in0.0 mm
01:15 AM 32.2°F0.1°C 22.1°F-5.5°C 66% 13.0 mph SW20.9 kmh SW 27.0 mph43.5 kmh 29.99 in1015.6 mb 0.00 in0.0 mm 0.00 in0.0 mm 0.00 in0.0 mm
01:30 AM 31.5°F-0.3°C 23.5°F-4.7°C 72% 13.0 mph SW20.9 kmh SW 28.0 mph45.1 kmh 30.00 in1015.9 mb 0.00 in0.0 mm 0.00 in0.0 mm 0.00 in0.0 mm
01:45 AM 31.5°F-0.3°C 23.8°F-4.6°C 73% 11.0 mph SW17.7 kmh SW 24.0 mph38.6 kmh 29.99 in1015.6 mb 0.00 in0.0 mm 0.00 in0.0 mm 0.00 in0.0 mm
02:00 AM 31.6°F-0.2°C 23.3°F-4.8°C 71% 10.0 mph SW16.1 kmh SW 24.0 mph38.6 kmh 29.98 in1015.2 mb 0.00 in0.0 mm 0.00 in0.0 mm 0.00 in0.0 mm
02:15 AM 31.8°F-0.1°C 22.8°F-5.1°C 69% 11.0 mph SW17.7 kmh SW 22.0 mph35.4 kmh 29.99 in1015.6 mb 0.00 in0.0 mm 0.00 in0.0 mm 0.00 in0.0 mm
02:30 AM 31.5°F-0.3°C 24.8°F-4.0°C 76% 12.0 mph SW19.3 kmh SW 25.0 mph40.2 kmh 29.99 in1015.6 mb 0.00 in0.0 mm 0.00 in0.0 mm 0.00 in0.0 mm
02:45 AM 30.6°F-0.8°C 26.0°F-3.3°C 83% 10.0 mph SW16.1 kmh SW 26.0 mph41.8 kmh 29.98 in1015.2 mb 0.00 in0.0 mm 0.00 in0.0 mm 0.00 in0.0 mm
03:00 AM 30.0°F-1.1°C 26.6°F-3.0°C 87% 11.0 mph SW17.7 kmh SW 23.0 mph37.0 kmh 29.98 in1015.2 mb 0.00 in0.0 mm 0.00 in0.0 mm 0.00 in0.0 mm
03:15 AM 29.8°F-1.2°C 27.0°F-2.8°C 89% 8.0 mph SW12.9 kmh SW 20.0 mph32.2 kmh 29.98 in1015.2 mb 0.00 in0.0 mm 0.00 in0.0 mm 0.00 in0.0 mm
03:30 AM 29.8°F-1.2°C 27.3°F-2.6°C 90% 8.0 mph SW12.9 kmh SW 17.0 mph27.4 kmh 29.98 in1015.2 mb 0.01 in0.3 mm 0.04 in1.0 mm 0.01 in0.3 mm
03:45 AM 30.2°F-1.0°C 27.3°F-2.6°C 89% 9.0 mph SW14.5 kmh SW 21.0 mph33.8 kmh 29.98 in1015.2 mb 0.02 in0.5 mm 0.04 in1.0 mm 0.02 in0.5 mm
04:00 AM 30.9°F-0.6°C 26.1°F-3.3°C 82% 9.0 mph SW14.5 kmh SW 19.0 mph30.6 kmh 29.97 in1014.9 mb 0.02 in0.5 mm 0.00 in0.0 mm 0.02 in0.5 mm
04:15 AM 31.6°F-0.2°C 25.9°F-3.4°C 79% 9.0 mph SW14.5 kmh SW 21.0 mph33.8 kmh 29.96 in1014.6 mb 0.02 in0.5 mm 0.00 in0.0 mm 0.02 in0.5 mm
04:30 AM 31.1°F-0.5°C 26.8°F-2.9°C 84% 10.0 mph SW16.1 kmh SW 20.0 mph32.2 kmh 29.96 in1014.6 mb 0.02 in0.5 mm 0.00 in0.0 mm 0.02 in0.5 mm
04:45 AM 30.7°F-0.7°C 27.3°F-2.6°C 87% 9.0 mph SW14.5 kmh SW 22.0 mph35.4 kmh 29.95 in1014.2 mb 0.02 in0.5 mm 0.00 in0.0 mm 0.03 in0.8 mm
05:00 AM 30.6°F-0.8°C 27.4°F-2.6°C 88% 8.0 mph SW12.9 kmh SW 16.0 mph25.7 kmh 29.94 in1013.9 mb 0.01 in0.3 mm 0.00 in0.0 mm 0.03 in0.8 mm
05:15 AM 30.6°F-0.8°C 27.4°F-2.6°C 88% 7.0 mph SW11.3 kmh SW 15.0 mph24.1 kmh 29.93 in1013.5 mb 0.02 in0.5 mm 0.04 in1.0 mm 0.04 in1.0 mm
05:30 AM 30.7°F-0.7°C 27.6°F-2.4°C 88% 8.0 mph SW12.9 kmh SW 18.0 mph29.0 kmh 29.92 in1013.2 mb 0.02 in0.5 mm 0.00 in0.0 mm 0.05 in1.3 mm
05:45 AM 30.9°F-0.6°C 27.5°F-2.5°C 87% 8.0 mph SW12.9 kmh SW 19.0 mph30.6 kmh 29.91 in1012.9 mb 0.02 in0.5 mm 0.00 in0.0 mm 0.05 in1.3 mm
06:00 AM 30.9°F-0.6°C 27.2°F-2.7°C 86% 7.0 mph SW11.3 kmh SW 15.0 mph24.1 kmh 29.92 in1013.2 mb 0.02 in0.5 mm 0.00 in0.0 mm 0.05 in1.3 mm
06:15 AM 31.1°F-0.5°C 28.0°F-2.2°C 88% 7.0 mph SW11.3 kmh SW 20.0 mph32.2 kmh 29.90 in1012.5 mb 0.02 in0.5 mm 0.00 in0.0 mm 0.06 in1.5 mm
06:30 AM 31.3°F-0.4°C 28.4°F-2.0°C 89% 7.0 mph SSW11.3 kmh SSW 13.0 mph20.9 kmh 29.90 in1012.5 mb 0.01 in0.3 mm 0.00 in0.0 mm 0.06 in1.5 mm
06:45 AM 31.3°F-0.4°C 28.7°F-1.8°C 90% 6.0 mph SSW9.7 kmh SSW 17.0 mph27.4 kmh 29.89 in1012.2 mb 0.02 in0.5 mm 0.04 in1.0 mm 0.06 in1.5 mm
07:00 AM 31.5°F-0.3°C 28.9°F-1.7°C 90% 6.0 mph SSW9.7 kmh SSW 15.0 mph24.1 kmh 29.88 in1011.9 mb 0.02 in0.5 mm 0.00 in0.0 mm 0.07 in1.8 mm
07:15 AM 31.6°F-0.2°C 29.3°F-1.5°C 91% 6.0 mph SSW9.7 kmh SSW 17.0 mph27.4 kmh 29.88 in1011.9 mb 0.02 in0.5 mm 0.00 in0.0 mm 0.07 in1.8 mm
07:30 AM 31.8°F-0.1°C 29.5°F-1.4°C 91% 7.0 mph SSW11.3 kmh SSW 19.0 mph30.6 kmh 29.86 in1011.2 mb 0.02 in0.5 mm 0.00 in0.0 mm 0.08 in2.0 mm
07:45 AM 32.2°F0.1°C 29.8°F-1.2°C 91% 8.0 mph SSW12.9 kmh SSW 20.0 mph32.2 kmh 29.85 in1010.8 mb 0.02 in0.5 mm 0.00 in0.0 mm 0.09 in2.3 mm
08:00 AM 32.4°F0.2°C 30.3°F-0.9°C 92% 9.0 mph SSW14.5 kmh SSW 21.0 mph33.8 kmh 29.85 in1010.8 mb 0.03 in0.8 mm 0.01 in0.3 mm 0.10 in2.5 mm
08:15 AM 32.7°F0.4°C 30.7°F-0.7°C 92% 10.0 mph SW16.1 kmh SW 21.0 mph33.8 kmh 29.85 in1010.8 mb 0.03 in0.8 mm 0.00 in0.0 mm 0.10 in2.5 mm
08:30 AM 32.7°F0.4°C 30.7°F-0.7°C 92% 7.0 mph SSW11.3 kmh SSW 14.0 mph22.5 kmh 29.84 in1010.5 mb 0.04 in1.0 mm 0.04 in1.0 mm 0.12 in3.0 mm
08:45 AM 33.1°F0.6°C 31.3°F-0.4°C 93% 7.0 mph SW11.3 kmh SW 15.0 mph24.1 kmh 29.83 in1010.2 mb 0.04 in1.0 mm 0.00 in0.0 mm 0.13 in3.3 mm
09:00 AM 33.3°F0.7°C 31.5°F-0.3°C 93% 8.0 mph SW12.9 kmh SW 19.0 mph30.6 kmh 29.83 in1010.2 mb 0.05 in1.3 mm 0.01 in0.3 mm 0.15 in3.8 mm
09:15 AM 33.4°F0.8°C 31.6°F-0.2°C 93% 7.0 mph SW11.3 kmh SW 17.0 mph27.4 kmh 29.83 in1010.2 mb 0.08 in2.0 mm 0.12 in3.0 mm 0.18 in4.6 mm
09:30 AM 33.6°F0.9°C 31.8°F-0.1°C 93% 7.0 mph SW11.3 kmh SW 16.0 mph25.7 kmh 29.83 in1010.2 mb 0.07 in1.8 mm 0.00 in0.0 mm 0.19 in4.8 mm
09:45 AM 34.0°F1.1°C 32.2°F0.1°C 93% 7.0 mph SW11.3 kmh SW 15.0 mph24.1 kmh 29.83 in1010.2 mb 0.07 in1.8 mm 0.00 in0.0 mm 0.20 in5.1 mm
10:00 AM 34.2°F1.2°C 32.3°F0.2°C 93% 9.0 mph SW14.5 kmh SW 18.0 mph29.0 kmh 29.82 in1009.8 mb 0.07 in1.8 mm 0.00 in0.0 mm 0.22 in5.6 mm
10:15 AM 34.3°F1.3°C 32.3°F0.2°C 92% 10.0 mph SW16.1 kmh SW 23.0 mph37.0 kmh 29.82 in1009.8 mb 0.06 in1.5 mm 0.00 in0.0 mm 0.24 in6.1 mm
10:30 AM 34.5°F1.4°C 32.4°F0.2°C 92% 10.0 mph SW16.1 kmh SW 22.0 mph35.4 kmh 29.83 in1010.2 mb 0.06 in1.5 mm 0.00 in0.0 mm 0.24 in6.1 mm
10:45 AM 34.7°F1.5°C 32.6°F0.3°C 92% 11.0 mph SW17.7 kmh SW 24.0 mph38.6 kmh 29.83 in1010.2 mb 0.05 in1.3 mm 0.00 in0.0 mm 0.24 in6.1 mm
11:00 AM 34.9°F1.6°C 32.8°F0.4°C 92% 10.0 mph SW16.1 kmh SW 22.0 mph35.4 kmh 29.83 in1010.2 mb 0.02 in0.5 mm 0.00 in0.0 mm 0.24 in6.1 mm
11:15 AM 35.1°F1.7°C 32.7°F0.4°C 91% 10.0 mph SW16.1 kmh SW 26.0 mph41.8 kmh 29.83 in1010.2 mb 0.01 in0.3 mm 0.00 in0.0 mm 0.24 in6.1 mm
11:30 AM 35.1°F1.7°C 33.0°F0.6°C 92% 9.0 mph SW14.5 kmh SW 17.0 mph27.4 kmh 29.83 in1010.2 mb 0.00 in0.0 mm 0.00 in0.0 mm 0.24 in6.1 mm
11:45 AM 35.2°F1.8°C 33.1°F0.6°C 92% 9.0 mph SW14.5 kmh SW 19.0 mph30.6 kmh 29.83 in1010.2 mb 0.00 in0.0 mm 0.00 in0.0 mm 0.24 in6.1 mm
12:00 PM 35.4°F1.9°C 33.1°F0.6°C 91% 8.0 mph SW12.9 kmh SW 20.0 mph32.2 kmh 29.83 in1010.2 mb 0.00 in0.0 mm 0.00 in0.0 mm 0.24 in6.1 mm
12:15 PM 35.6°F2.0°C 33.2°F0.7°C 91% 8.0 mph SW12.9 kmh SW 20.0 mph32.2 kmh 29.83 in1010.2 mb 0.00 in0.0 mm 0.00 in0.0 mm 0.24 in6.1 mm
12:30 PM 35.6°F2.0°C 33.2°F0.7°C 91% 8.0 mph SW12.9 kmh SW 17.0 mph27.4 kmh 29.82 in1009.8 mb 0.00 in0.0 mm 0.00 in0.0 mm 0.24 in6.1 mm
12:45 PM 35.2°F1.8°C 32.9°F0.5°C 91% 8.0 mph SW12.9 kmh SW 17.0 mph27.4 kmh 29.82 in1009.8 mb 0.01 in0.3 mm 0.04 in1.0 mm 0.25 in6.4 mm
01:00 PM 35.6°F2.0°C 33.2°F0.7°C 91% 9.0 mph SW14.5 kmh SW 23.0 mph37.0 kmh 29.81 in1009.5 mb 0.01 in0.3 mm 0.00 in0.0 mm 0.25 in6.4 mm
01:15 PM 36.0°F2.2°C 33.3°F0.7°C 90% 8.0 mph SW12.9 kmh SW 20.0 mph32.2 kmh 29.81 in1009.5 mb 0.01 in0.3 mm 0.00 in0.0 mm 0.25 in6.4 mm
01:30 PM 36.3°F2.4°C 33.4°F0.8°C 89% 9.0 mph SW14.5 kmh SW 19.0 mph30.6 kmh 29.82 in1009.8 mb 0.01 in0.3 mm 0.00 in0.0 mm 0.25 in6.4 mm
01:45 PM 36.1°F2.3°C 33.2°F0.7°C 89% 8.0 mph SW12.9 kmh SW 24.0 mph38.6 kmh 29.82 in1009.8 mb 0.00 in0.0 mm 0.00 in0.0 mm 0.25 in6.4 mm
02:00 PM 36.1°F2.3°C 32.9°F0.5°C 88% 7.0 mph WSW11.3 kmh WSW 16.0 mph25.7 kmh 29.81 in1009.5 mb 0.00 in0.0 mm 0.00 in0.0 mm 0.25 in6.4 mm
02:15 PM 36.3°F2.4°C 33.1°F0.6°C 88% 9.0 mph SW14.5 kmh SW 22.0 mph35.4 kmh 29.82 in1009.8 mb 0.00 in0.0 mm 0.00 in0.0 mm 0.25 in6.4 mm
02:30 PM 36.1°F2.3°C 32.9°F0.5°C 88% 8.0 mph WSW12.9 kmh WSW 18.0 mph29.0 kmh 29.82 in1009.8 mb 0.00 in0.0 mm 0.00 in0.0 mm 0.25 in6.4 mm
02:45 PM 36.0°F2.2°C 33.0°F0.6°C 89% 9.0 mph WSW14.5 kmh WSW 20.0 mph32.2 kmh 29.82 in1009.8 mb 0.00 in0.0 mm 0.00 in0.0 mm 0.25 in6.4 mm
03:00 PM 36.0°F2.2°C 33.0°F0.6°C 89% 8.0 mph WSW12.9 kmh WSW 20.0 mph32.2 kmh 29.82 in1009.8 mb 0.00 in0.0 mm 0.00 in0.0 mm 0.25 in6.4 mm
03:15 PM 36.1°F2.3°C 33.2°F0.7°C 89% 7.0 mph WSW11.3 kmh WSW 16.0 mph25.7 kmh 29.83 in1010.2 mb 0.00 in0.0 mm 0.00 in0.0 mm 0.25 in6.4 mm
03:30 PM 36.3°F2.4°C 33.1°F0.6°C 88% 6.0 mph WSW9.7 kmh WSW 17.0 mph27.4 kmh 29.83 in1010.2 mb 0.00 in0.0 mm 0.00 in0.0 mm 0.25 in6.4 mm
03:45 PM 36.5°F2.5°C 33.3°F0.7°C 88% 8.0 mph WSW12.9 kmh WSW 17.0 mph27.4 kmh 29.83 in1010.2 mb 0.00 in0.0 mm 0.00 in0.0 mm 0.25 in6.4 mm
04:00 PM 36.5°F2.5°C 33.3°F0.7°C 88% 6.0 mph WSW9.7 kmh WSW 18.0 mph29.0 kmh 29.83 in1010.2 mb 0.00 in0.0 mm 0.00 in0.0 mm 0.25 in6.4 mm
04:15 PM 36.5°F2.5°C 33.3°F0.7°C 88% 7.0 mph WSW11.3 kmh WSW 18.0 mph29.0 kmh 29.83 in1010.2 mb 0.00 in0.0 mm 0.00 in0.0 mm 0.25 in6.4 mm
04:30 PM 36.3°F2.4°C 33.1°F0.6°C 88% 6.0 mph WSW9.7 kmh WSW 16.0 mph25.7 kmh 29.83 in1010.2 mb 0.00 in0.0 mm 0.00 in0.0 mm 0.25 in6.4 mm
04:45 PM 36.3°F2.4°C 33.1°F0.6°C 88% 4.0 mph SW6.4 kmh SW 13.0 mph20.9 kmh 29.83 in1010.2 mb 0.00 in0.0 mm 0.00 in0.0 mm 0.25 in6.4 mm
05:00 PM 36.3°F2.4°C 33.1°F0.6°C 88% 5.0 mph WSW8.0 kmh WSW 14.0 mph22.5 kmh 29.84 in1010.5 mb 0.00 in0.0 mm 0.00 in0.0 mm 0.25 in6.4 mm
05:15 PM 36.3°F2.4°C 33.1°F0.6°C 88% 5.0 mph SW8.0 kmh SW 11.0 mph17.7 kmh 29.84 in1010.5 mb 0.00 in0.0 mm 0.00 in0.0 mm 0.25 in6.4 mm
05:30 PM 36.3°F2.4°C 33.1°F0.6°C 88% 6.0 mph SW9.7 kmh SW 15.0 mph24.1 kmh 29.84 in1010.5 mb 0.00 in0.0 mm 0.00 in0.0 mm 0.25 in6.4 mm
05:45 PM 36.3°F2.4°C 33.1°F0.6°C 88% 5.0 mph WSW8.0 kmh WSW 11.0 mph17.7 kmh 29.85 in1010.8 mb 0.00 in0.0 mm 0.00 in0.0 mm 0.25 in6.4 mm
06:00 PM 36.3°F2.4°C 33.1°F0.6°C 88% 5.0 mph WSW8.0 kmh WSW 11.0 mph17.7 kmh 29.85 in1010.8 mb 0.00 in0.0 mm 0.00 in0.0 mm 0.25 in6.4 mm
06:15 PM 36.1°F2.3°C 32.9°F0.5°C 88% 4.0 mph WSW6.4 kmh WSW 13.0 mph20.9 kmh 29.86 in1011.2 mb 0.00 in0.0 mm 0.00 in0.0 mm 0.25 in6.4 mm
06:30 PM 36.1°F2.3°C 32.9°F0.5°C 88% 5.0 mph WSW8.0 kmh WSW 11.0 mph17.7 kmh 29.86 in1011.2 mb 0.00 in0.0 mm 0.00 in0.0 mm 0.25 in6.4 mm
06:45 PM 36.3°F2.4°C 32.8°F0.4°C 87% 7.0 mph WSW11.3 kmh WSW 13.0 mph20.9 kmh 29.86 in1011.2 mb 0.00 in0.0 mm 0.00 in0.0 mm 0.25 in6.4 mm
07:00 PM 36.3°F2.4°C 32.5°F0.3°C 86% 6.0 mph WSW9.7 kmh WSW 15.0 mph24.1 kmh 29.87 in1011.5 mb 0.00 in0.0 mm 0.00 in0.0 mm 0.25 in6.4 mm
07:15 PM 36.3°F2.4°C 32.5°F0.3°C 86% 5.0 mph WSW8.0 kmh WSW 12.0 mph19.3 kmh 29.88 in1011.9 mb 0.00 in0.0 mm 0.00 in0.0 mm 0.25 in6.4 mm
07:30 PM 36.3°F2.4°C 32.5°F0.3°C 86% 6.0 mph SW9.7 kmh SW 16.0 mph25.7 kmh 29.88 in1011.9 mb 0.00 in0.0 mm 0.00 in0.0 mm 0.25 in6.4 mm
07:45 PM 36.1°F2.3°C 32.4°F0.2°C 86% 6.0 mph SW9.7 kmh SW 14.0 mph22.5 kmh 29.88 in1011.9 mb 0.00 in0.0 mm 0.00 in0.0 mm 0.25 in6.4 mm
08:00 PM 36.3°F2.4°C 32.2°F0.1°C 85% 6.0 mph WSW9.7 kmh WSW 17.0 mph27.4 kmh 29.89 in1012.2 mb 0.00 in0.0 mm 0.00 in0.0 mm 0.25 in6.4 mm
08:15 PM 36.3°F2.4°C 32.2°F0.1°C 85% 5.0 mph SW8.0 kmh SW 12.0 mph19.3 kmh 29.89 in1012.2 mb 0.00 in0.0 mm 0.00 in0.0 mm 0.25 in6.4 mm
08:30 PM 36.1°F2.3°C 32.4°F0.2°C 86% 5.0 mph SW8.0 kmh SW 14.0 mph22.5 kmh 29.90 in1012.5 mb 0.00 in0.0 mm 0.00 in0.0 mm 0.25 in6.4 mm
08:45 PM 36.3°F2.4°C 32.2°F0.1°C 85% 7.0 mph SW11.3 kmh SW 14.0 mph22.5 kmh 29.90 in1012.5 mb 0.00 in0.0 mm 0.00 in0.0 mm 0.25 in6.4 mm
09:00 PM 36.3°F2.4°C 32.2°F0.1°C 85% 6.0 mph WSW9.7 kmh WSW 12.0 mph19.3 kmh 29.90 in1012.5 mb 0.00 in0.0 mm 0.00 in0.0 mm 0.25 in6.4 mm
09:15 PM 36.3°F2.4°C 32.2°F0.1°C 85% 6.0 mph SW9.7 kmh SW 16.0 mph25.7 kmh 29.90 in1012.5 mb 0.00 in0.0 mm 0.00 in0.0 mm 0.25 in6.4 mm
09:30 PM 36.3°F2.4°C 32.2°F0.1°C 85% 8.0 mph SW12.9 kmh SW 20.0 mph32.2 kmh 29.90 in1012.5 mb 0.00 in0.0 mm 0.00 in0.0 mm 0.25 in6.4 mm
09:45 PM 36.3°F2.4°C 32.2°F0.1°C 85% 8.0 mph SW12.9 kmh SW 15.0 mph24.1 kmh 29.91 in1012.9 mb 0.00 in0.0 mm 0.00 in0.0 mm 0.25 in6.4 mm
10:00 PM 36.1°F2.3°C 32.1°F0.1°C 85% 7.0 mph WSW11.3 kmh WSW 14.0 mph22.5 kmh 29.91 in1012.9 mb 0.00 in0.0 mm 0.00 in0.0 mm 0.25 in6.4 mm
10:15 PM 36.3°F2.4°C 32.2°F0.1°C 85% 7.0 mph WSW11.3 kmh WSW 17.0 mph27.4 kmh 29.91 in1012.9 mb 0.00 in0.0 mm 0.00 in0.0 mm 0.25 in6.4 mm
10:30 PM 36.3°F2.4°C 31.9°F-0.1°C 84% 9.0 mph WSW14.5 kmh WSW 18.0 mph29.0 kmh 29.91 in1012.9 mb 0.00 in0.0 mm 0.00 in0.0 mm 0.25 in6.4 mm
10:45 PM 36.1°F2.3°C 32.1°F0.1°C 85% 6.0 mph WSW9.7 kmh WSW 14.0 mph22.5 kmh 29.91 in1012.9 mb 0.00 in0.0 mm 0.00 in0.0 mm 0.25 in6.4 mm
11:00 PM 36.1°F2.3°C 32.1°F0.1°C 85% 6.0 mph WSW9.7 kmh WSW 13.0 mph20.9 kmh 29.92 in1013.2 mb 0.00 in0.0 mm 0.00 in0.0 mm 0.25 in6.4 mm
11:15 PM 36.1°F2.3°C 31.8°F-0.1°C 84% 6.0 mph WSW9.7 kmh WSW 15.0 mph24.1 kmh 29.92 in1013.2 mb 0.00 in0.0 mm 0.00 in0.0 mm 0.25 in6.4 mm
11:30 PM 36.1°F2.3°C 31.5°F-0.3°C 83% 7.0 mph WSW11.3 kmh WSW 14.0 mph22.5 kmh 29.92 in1013.2 mb 0.00 in0.0 mm 0.00 in0.0 mm 0.25 in6.4 mm
11:45 PM 36.1°F2.3°C 31.2°F-0.4°C 82% 4.0 mph WSW6.4 kmh WSW 11.0 mph17.7 kmh 29.93 in1013.5 mb 0.00 in0.0 mm 0.00 in0.0 mm 0.25 in6.4 mm